PAHOPAMD

Guest
Details From PAHO - HOMER
To PAMD - MIDDLETON ISLAND
Flight Number -
Tags generated
Created
Modified
Stats Distance 166 nm / 307 km
Max Altitude 17,600 ft / 5,364 m
Waypoints 3
Social Downloads 0
Likes 0
Share VATSIM

Download

Looking for another format? Having issues loading an existing format? Contact us
Advertisement - Login to hide

Notes

Basic altitude profile: - Ascent Rate: 2500ft/min - Ascent Speed: 250kts - Cruise Altitude: 10000ft - Cruise Speed: 170kts - Descent Rate: 1500ft/min - Descent Speed: 250kts Options: - Use NATs: no - Use PACOTS: no - Use low airways: no - Use high airways: no

Route

PAHO 6000N15000W PAMD

ID Type Via Altitude Latitude Longitude Leg Dist Tot Dist Heading (true) Name
O PAHO APT - 0 ft / 0 m 59.64555˚ -151.47659˚ - 0 nm - HOMER
6000N15000W LATLON - 17,600 ft / 5,364 m 60.00000˚ -150.00000˚ 49 nm 49 nm 64° / 65° -
O PAMD APT - 0 ft / 0 m 59.45114˚ -146.30678˚ 116 nm 165 nm 105° / 108° MIDDLETON ISLAND

Altitude Profile

Advertisement - Login to hide

Weather


0- 5 10 15 20 25 30 35+ Temperature / ° C

Clouds and Precipitation
Forecast for 2017-12-18 06:00 UTC. Updated 9 minutes ago

Ground ~20,000 ft ~40,000 ft Winds

PAHO

Details ICAO PAHO (HOM)
Name HOMER
Region USA (Alaska)
Timezone America/Anchorage (UTC-9.0)
Stats Elevation 84 ft / 26 m (AMSL)
Location 59.645547° -151.476589°
Runways 1
Magnetic Variation 15.490° E

METAR

PAHO 180253Z 00000KT 10SM FEW043 OVC060 M01/M02 A2970 RMK AO2 SLP060 6//// T10061022 $

Decode

TAF

PAHO 172337Z 1800/1824 35005KT P6SM SCT040

Decode

Departure Runways

ID Width Length Bearing (true) Bearing (mag) Surface Threshold Offset Overrun Length
03 151 ft / 46 m 6,706 ft / 2,044 m 54.97° 39.48° Asphalt 801 ft / 244 m 0 ft / 0 m
21 151 ft / 46 m 6,706 ft / 2,044 m 234.99° 219.50° Asphalt 0 ft / 0 m 0 ft / 0 m

PAMD

Details ICAO PAMD
Name MIDDLETON ISLAND
Region USA (Alaska)
Timezone America/Anchorage (UTC-9.0)
Stats Elevation 100 ft / 30 m (AMSL)
Location 59.451139° -146.306781°
Runways 2
Magnetic Variation 17.103° E

METAR

PAMD 180257Z AUTO 09007KT 10SM FEW032 03/00 A2958 RMK AO2 RAE09 SLP007 P0000 60000 T00280000 53022

Decode

TAF

Not found

Destination Runways

ID Width Length Bearing (true) Bearing (mag) Surface Threshold Offset Overrun Length
01 115 ft / 35 m 3,151 ft / 960 m 34.26° 17.16° Gravel 0 ft / 0 m 0 ft / 0 m
12 125 ft / 38 m 1,497 ft / 456 m 149.75° 132.65° Gravel 0 ft / 0 m 0 ft / 0 m
19 115 ft / 35 m 3,151 ft / 960 m 214.27° 197.17° Gravel 0 ft / 0 m 0 ft / 0 m
30 125 ft / 38 m 1,497 ft / 456 m 329.75° 312.65° Gravel 0 ft / 0 m 0 ft / 0 m

Popular Alternatives